Time;durP1;ratioP1;P1;durP2;ratioP2;P2;SDS_P1;SDS_P2;PMS_P1;PMS_P2;Temp;Humidity;BMP_temperature;BMP_pressure;BME280_temperature;BME280_humidity;BME280_pressure;Samples;Min_cycle;Max_cycle;Signal;HPM_P1;HPM_P2
2024/02/24 00:02:06;;;;;;;1.20;0.90;;;;;;;5.87;75.36;99425.20;103647;1310;22687;-66
2024/02/24 00:04:32;;;;;;;1.80;1.10;;;;;;;5.85;75.41;99428.64;103635;1307;22560;-66
2024/02/24 00:06:57;;;;;;;1.40;0.90;;;;;;;5.82;75.49;99426.80;103704;1304;24240;-66
2024/02/24 00:09:22;;;;;;;1.30;0.80;;;;;;;5.80;75.70;99421.54;103727;1310;24411;-65
2024/02/24 00:11:48;;;;;;;1.50;0.70;;;;;;;5.77;75.90;99418.17;103643;1307;22597;-66
2024/02/24 00:14:14;;;;;;;0.80;0.60;;;;;;;5.73;75.94;99412.07;103939;1291;22638;-65
2024/02/24 00:16:39;;;;;;;1.10;0.60;;;;;;;5.71;76.30;99413.52;103730;1297;23066;-65
2024/02/24 00:19:05;;;;;;;1.20;0.70;;;;;;;5.67;76.29;99413.55;103578;1310;22712;-65
2024/02/24 00:21:31;;;;;;;1.50;0.70;;;;;;;5.66;76.28;99416.48;103998;1304;22677;-65
2024/02/24 00:23:56;;;;;;;1.20;0.70;;;;;;;5.62;76.51;99416.89;103654;1295;22632;-64
2024/02/24 00:26:22;;;;;;;0.80;0.60;;;;;;;5.59;76.04;99415.22;103930;1304;26819;-65
2024/02/24 00:28:47;;;;;;;2.00;1.00;;;;;;;5.58;76.29;99412.34;103666;1310;22588;-67
2024/02/24 00:31:13;;;;;;;0.80;0.80;;;;;;;5.58;76.80;99412.52;104002;1310;24442;-63
2024/02/24 00:33:38;;;;;;;1.30;0.60;;;;;;;5.55;76.31;99414.25;103969;1291;22616;-64
2024/02/24 00:36:04;;;;;;;0.50;0.50;;;;;;;5.54;76.07;99406.75;103709;1310;25718;-65
2024/02/24 00:38:30;;;;;;;1.20;0.80;;;;;;;5.54;76.23;99402.82;104025;1296;22719;-65
2024/02/24 00:40:55;;;;;;;2.90;0.60;;;;;;;5.54;76.14;99404.20;103811;1304;22602;-65
2024/02/24 00:43:21;;;;;;;1.70;0.90;;;;;;;5.53;76.14;99400.10;103951;1289;26395;-66
2024/02/24 00:45:47;;;;;;;1.50;0.80;;;;;;;5.52;76.19;99390.54;103606;1310;22611;-65
2024/02/24 00:48:13;;;;;;;1.60;1.30;;;;;;;5.50;76.63;99379.29;103963;1305;22651;-65
2024/02/24 00:50:38;;;;;;;1.80;1.60;;;;;;;5.50;76.28;99369.73;103644;1307;22590;-65
2024/02/24 00:53:04;;;;;;;1.10;1.10;;;;;;;5.51;76.34;99363.91;103974;1308;24402;-66
2024/02/24 00:55:29;;;;;;;1.70;1.20;;;;;;;5.52;76.23;99363.03;103687;1294;22688;-64
2024/02/24 00:57:55;;;;;;;6.20;3.00;;;;;;;5.52;76.21;99358.08;103935;1308;25520;-66
2024/02/24 01:00:21;;;;;;;4.60;2.40;;;;;;;5.52;76.61;99353.63;103951;1305;22585;-66
2024/02/24 01:02:46;;;;;;;2.00;1.30;;;;;;;5.50;76.30;99351.60;103687;1310;22685;-65
2024/02/24 01:05:12;;;;;;;2.20;1.00;;;;;;;5.50;76.31;99338.28;103812;1305;22574;-64
2024/02/24 01:07:38;;;;;;;1.20;0.90;;;;;;;5.50;76.41;99331.78;103532;1305;22567;-64
2024/02/24 01:10:04;;;;;;;1.70;0.90;;;;;;;5.50;76.55;99341.02;103804;1311;22590;-65
2024/02/24 01:12:29;;;;;;;3.20;0.80;;;;;;;5.48;76.70;99346.51;103603;1310;23373;-64
2024/02/24 01:14:55;;;;;;;1.00;0.90;;;;;;;5.48;76.43;99349.58;103664;1295;22567;-64
2024/02/24 01:17:21;;;;;;;1.70;1.00;;;;;;;5.48;76.46;99354.53;103876;1311;24026;-65
2024/02/24 01:19:46;;;;;;;1.90;1.30;;;;;;;5.47;76.72;99357.64;103813;1311;22694;-65
2024/02/24 01:22:13;;;;;;;2.00;1.10;;;;;;;5.47;76.92;99355.42;103826;1305;23906;-65
2024/02/24 01:24:39;;;;;;;1.30;1.20;;;;;;;5.47;77.15;99345.16;103778;1294;22713;-64
2024/02/24 01:27:05;;;;;;;1.60;0.90;;;;;;;5.49;77.21;99346.48;103844;1310;22656;-65
2024/02/24 01:29:31;;;;;;;1.20;1.10;;;;;;;5.51;77.27;99350.05;105304;1310;22695;-66
2024/02/24 01:31:59;;;;;;;3.50;0.90;;;;;;;5.51;77.32;99342.36;104005;1310;25363;-66
2024/02/24 01:34:25;;;;;;;2.60;1.20;;;;;;;5.52;77.42;99331.40;104933;1310;22592;-66
2024/02/24 01:36:50;;;;;;;1.70;1.10;;;;;;;5.53;77.43;99327.96;103669;1311;26778;-66
2024/02/24 01:39:16;;;;;;;5.70;1.40;;;;;;;5.53;77.37;99325.23;103814;1310;22905;-65
2024/02/24 01:41:41;;;;;;;1.40;1.00;;;;;;;5.53;77.31;99314.30;103679;1308;23757;-66
2024/02/24 01:44:07;;;;;;;1.40;1.00;;;;;;;5.52;77.42;99309.35;103748;1310;24731;-65
2024/02/24 01:46:33;;;;;;;2.00;1.30;;;;;;;5.53;77.34;99306.77;103722;1296;22650;-64
2024/02/24 01:48:58;;;;;;;1.40;1.20;;;;;;;5.52;77.45;99305.92;103628;1309;24374;-65
2024/02/24 01:51:24;;;;;;;2.20;1.10;;;;;;;5.52;77.43;99297.05;103939;1310;23415;-64
2024/02/24 01:53:50;;;;;;;2.20;1.30;;;;;;;5.50;77.54;99288.02;103920;1310;22619;-64
2024/02/24 01:56:15;;;;;;;2.10;1.00;;;;;;;5.49;76.90;99290.95;103996;1291;22590;-66
2024/02/24 01:58:42;;;;;;;2.10;1.10;;;;;;;5.48;76.69;99291.65;103935;1304;23616;-65
2024/02/24 02:01:08;;;;;;;2.30;1.10;;;;;;;5.46;77.11;99288.09;103930;1294;22553;-66
2024/02/24 02:03:35;;;;;;;7.00;1.40;;;;;;;5.44;77.13;99288.47;106088;1307;22614;-66
2024/02/24 02:06:02;;;;;;;2.00;1.20;;;;;;;5.44;77.60;99287.27;103927;1291;24228;-65
2024/02/24 02:08:28;;;;;;;1.60;1.50;;;;;;;5.44;77.85;99290.00;103918;1310;22675;-65
2024/02/24 02:10:55;;;;;;;2.80;1.70;;;;;;;5.45;77.57;99293.08;103565;1308;22560;-64
2024/02/24 02:13:22;;;;;;;4.80;1.80;;;;;;;5.45;77.67;99285.90;104659;1288;22584;-64
2024/02/24 02:15:53;;;;;;;2.50;2.10;;;;;;;5.46;77.95;99284.33;104196;1294;22580;-66
2024/02/24 02:18:20;;;;;;;2.80;2.10;;;;;;;5.46;78.15;99277.67;103935;1304;25390;-66
2024/02/24 02:20:48;;;;;;;1.70;1.60;;;;;;;5.46;77.75;99278.19;103637;1310;26586;-64
2024/02/24 02:23:14;;;;;;;8.60;2.60;;;;;;;5.46;77.75;99284.86;103858;1302;22556;-66
2024/02/24 02:25:40;;;;;;;2.30;1.80;;;;;;;5.45;77.70;99282.46;103813;1304;23211;-65
2024/02/24 02:28:05;;;;;;;2.70;1.90;;;;;;;5.46;77.91;99286.22;103796;1297;22587;-66
2024/02/24 02:30:31;;;;;;;1.70;1.60;;;;;;;5.46;77.97;99281.61;103459;1306;22940;-65
2024/02/24 02:32:56;;;;;;;4.30;1.90;;;;;;;5.45;78.13;99280.08;103792;1300;22587;-65
2024/02/24 02:35:22;;;;;;;4.00;2.10;;;;;;;5.45;77.67;99272.55;103737;1288;23053;-65
2024/02/24 02:37:47;;;;;;;2.40;2.00;;;;;;;5.44;78.08;99269.16;103602;1305;23602;-65
2024/02/24 02:40:13;;;;;;;3.50;1.90;;;;;;;5.43;77.95;99268.31;103534;1300;22560;-65
2024/02/24 02:42:38;;;;;;;3.10;2.60;;;;;;;5.44;78.13;99268.98;103876;1295;22632;-66
2024/02/24 02:45:04;;;;;;;3.50;2.40;;;;;;;5.44;78.32;99269.52;103838;1304;22592;-66
2024/02/24 02:47:30;;;;;;;3.00;1.90;;;;;;;5.44;78.38;99261.13;105461;1295;22606;-65
2024/02/24 02:49:56;;;;;;;2.30;2.10;;;;;;;5.44;78.40;99253.77;103548;1305;26687;-66
2024/02/24 02:52:21;;;;;;;2.50;2.30;;;;;;;5.45;78.40;99252.21;103765;1307;23048;-65
2024/02/24 02:54:47;;;;;;;3.20;2.10;;;;;;;5.44;78.53;99251.90;103826;1305;26345;-65
2024/02/24 02:57:12;;;;;;;2.30;2.10;;;;;;;5.42;78.59;99247.84;103778;1304;23052;-66
2024/02/24 02:59:38;;;;;;;5.00;2.30;;;;;;;5.42;78.86;99243.73;103619;1306;23036;-65
2024/02/24 03:02:03;;;;;;;2.30;2.10;;;;;;;5.41;78.63;99243.57;103849;1304;23207;-66
2024/02/24 03:04:29;;;;;;;2.70;2.30;;;;;;;5.42;79.06;99246.45;103923;1304;27019;-66
2024/02/24 03:06:54;;;;;;;3.20;2.90;;;;;;;5.41;79.07;99249.05;103835;1290;24272;-64
2024/02/24 03:09:20;;;;;;;3.30;2.70;;;;;;;5.39;79.06;99254.54;103832;1296;25382;-66
2024/02/24 03:11:45;;;;;;;5.40;2.80;;;;;;;5.40;79.06;99257.61;103782;1306;22572;-66
2024/02/24 03:14:11;;;;;;;3.40;2.80;;;;;;;5.41;79.09;99257.77;103807;1303;26272;-65
2024/02/24 03:16:37;;;;;;;2.90;2.50;;;;;;;5.42;78.91;99252.63;103821;1292;23197;-66
2024/02/24 03:19:03;;;;;;;4.10;3.00;;;;;;;5.41;79.19;99261.17;103893;1304;22560;-65
2024/02/24 03:21:31;;;;;;;3.50;3.00;;;;;;;5.41;79.02;99259.81;103797;1304;22717;-66
2024/02/24 03:23:57;;;;;;;5.10;3.60;;;;;;;5.40;79.10;99252.14;104601;1303;23152;-64
2024/02/24 03:26:23;;;;;;;3.60;3.30;;;;;;;5.39;79.50;99246.00;103917;1288;23054;-66
2024/02/24 03:28:49;;;;;;;3.70;3.40;;;;;;;5.38;79.26;99243.63;103809;1303;22689;-65
2024/02/24 03:31:14;;;;;;;3.80;3.50;;;;;;;5.38;79.10;99248.91;103801;1303;22584;-65
2024/02/24 03:33:40;;;;;;;4.50;3.40;;;;;;;5.39;79.29;99247.36;103754;1303;26597;-66
2024/02/24 03:36:06;;;;;;;3.40;3.00;;;;;;;5.38;79.54;99245.17;103818;1297;24239;-65
2024/02/24 03:38:31;;;;;;;5.30;3.10;;;;;;;5.38;79.38;99246.36;103906;1291;25744;-65
2024/02/24 03:40:57;;;;;;;3.40;2.70;;;;;;;5.37;79.62;99245.70;103557;1306;22661;-66
2024/02/24 03:43:23;;;;;;;2.70;2.50;;;;;;;5.35;79.99;99243.16;103942;1295;22593;-65
2024/02/24 03:45:49;;;;;;;3.10;2.80;;;;;;;5.31;80.10;99230.91;103950;1288;25577;-66
2024/02/24 03:48:15;;;;;;;2.60;2.40;;;;;;;5.30;79.64;99228.54;103919;1304;24300;-66
2024/02/24 03:50:41;;;;;;;4.90;3.10;;;;;;;5.29;80.08;99226.16;103678;1297;22578;-64
2024/02/24 03:53:06;;;;;;;3.40;2.80;;;;;;;5.27;80.01;99225.01;103980;1303;22607;-65
2024/02/24 03:55:32;;;;;;;3.80;2.90;;;;;;;5.26;79.84;99213.92;103481;1303;88594;-66
2024/02/24 03:57:58;;;;;;;3.10;2.30;;;;;;;5.26;80.17;99216.15;103714;1297;23027;-66
2024/02/24 04:00:23;;;;;;;6.90;3.00;;;;;;;5.24;80.55;99218.40;103687;1298;22625;-65
2024/02/24 04:02:49;;;;;;;5.80;2.50;;;;;;;5.23;80.38;99223.54;103706;1304;22556;-65
2024/02/24 04:05:14;;;;;;;3.00;2.50;;;;;;;5.22;80.35;99233.98;103965;1305;22566;-66
2024/02/24 04:07:40;;;;;;;3.80;2.80;;;;;;;5.20;80.56;99237.28;103663;1293;22711;-65
2024/02/24 04:10:06;;;;;;;3.00;2.70;;;;;;;5.18;80.33;99236.13;103694;1306;22563;-64
2024/02/24 04:12:31;;;;;;;3.00;2.60;;;;;;;5.18;80.41;99232.71;103843;1295;24129;-66
2024/02/24 04:14:57;;;;;;;3.30;2.30;;;;;;;5.17;80.39;99231.02;103943;1304;23130;-65
2024/02/24 04:17:22;;;;;;;2.90;2.00;;;;;;;5.16;80.26;99231.20;103847;1288;22721;-65
2024/02/24 04:19:48;;;;;;;2.10;1.60;;;;;;;5.14;80.91;99239.77;104009;1304;22807;-65
2024/02/24 04:22:13;;;;;;;2.00;1.40;;;;;;;5.08;80.62;99242.44;103983;1304;25453;-66
2024/02/24 04:24:40;;;;;;;1.40;1.20;;;;;;;5.06;80.58;99239.91;103979;1303;22612;-66
2024/02/24 04:27:05;;;;;;;2.30;1.40;;;;;;;5.05;80.58;99232.58;103902;1308;23368;-65
2024/02/24 04:29:31;;;;;;;2.00;1.00;;;;;;;5.04;80.65;99226.27;103812;1303;22619;-64
2024/02/24 04:31:56;;;;;;;2.10;1.10;;;;;;;5.00;80.90;99225.98;103648;1307;22558;-66
2024/02/24 04:34:22;;;;;;;1.00;0.70;;;;;;;4.94;80.74;99221.13;103606;1306;22591;-65
2024/02/24 04:36:48;;;;;;;0.60;0.60;;;;;;;4.90;80.98;99217.95;103706;1305;22581;-66
2024/02/24 04:39:14;;;;;;;0.90;0.50;;;;;;;4.87;80.94;99216.14;103790;1291;25456;-65
2024/02/24 04:41:40;;;;;;;1.30;0.80;;;;;;;4.84;81.57;99212.08;106221;1308;22585;-66
2024/02/24 04:44:05;;;;;;;0.60;0.60;;;;;;;4.78;81.34;99209.42;103704;1305;22591;-65
2024/02/24 04:46:32;;;;;;;0.70;0.60;;;;;;;4.74;81.40;99200.95;103974;1303;22583;-65
2024/02/24 04:48:58;;;;;;;1.90;0.70;;;;;;;4.70;81.08;99194.36;103782;1293;22607;-65
2024/02/24 04:51:23;;;;;;;0.50;0.50;;;;;;;4.68;80.91;99203.79;103892;1304;22777;-65
2024/02/24 04:53:49;;;;;;;0.50;0.40;;;;;;;4.66;81.19;99214.94;103664;1306;23097;-66
2024/02/24 04:56:16;;;;;;;0.60;0.50;;;;;;;4.62;81.09;99220.45;103908;1303;22561;-65
2024/02/24 04:58:42;;;;;;;1.50;0.60;;;;;;;4.59;81.16;99221.68;103652;1299;23372;-65
2024/02/24 05:01:08;;;;;;;1.30;0.90;;;;;;;4.57;81.33;99216.77;103797;1305;26393;-66
2024/02/24 05:03:34;;;;;;;1.50;0.70;;;;;;;4.56;81.21;99207.39;103887;1295;23040;-66
2024/02/24 05:06:00;;;;;;;0.70;0.50;;;;;;;4.55;81.18;99210.98;104017;1304;22675;-66
2024/02/24 05:08:25;;;;;;;1.30;0.60;;;;;;;4.55;81.38;99217.30;103898;1288;22699;-65
2024/02/24 05:10:51;;;;;;;0.80;0.70;;;;;;;4.53;81.80;99224.16;103679;1297;26602;-65
2024/02/24 05:13:16;;;;;;;0.50;0.50;;;;;;;4.47;81.71;99222.18;103877;1303;24296;-65
2024/02/24 05:15:42;;;;;;;0.50;0.50;;;;;;;4.46;81.86;99218.12;103909;1303;25451;-65
2024/02/24 05:18:07;;;;;;;1.10;0.90;;;;;;;4.44;81.70;99219.67;103840;1303;22588;-64
2024/02/24 05:20:33;;;;;;;1.70;0.70;;;;;;;4.43;81.82;99229.75;103946;1291;24358;-65
2024/02/24 05:23:00;;;;;;;2.70;0.80;;;;;;;4.42;82.27;99238.47;103752;1304;25275;-65
2024/02/24 05:25:26;;;;;;;2.00;0.90;;;;;;;4.39;82.51;99248.91;103983;1300;23643;-65
2024/02/24 05:27:53;;;;;;;0.60;0.60;;;;;;;4.35;82.27;99255.79;103973;1302;22562;-65
2024/02/24 05:30:19;;;;;;;3.10;0.80;;;;;;;4.35;82.79;99263.30;103635;1295;26225;-65
2024/02/24 05:32:44;;;;;;;0.70;0.70;;;;;;;4.31;83.05;99265.39;103570;1306;26243;-64
2024/02/24 05:35:10;;;;;;;1.30;0.80;;;;;;;4.27;82.94;99266.45;103899;1304;22564;-67
2024/02/24 05:37:35;;;;;;;0.60;0.60;;;;;;;4.26;82.64;99267.15;103903;1303;22573;-65
2024/02/24 05:40:01;;;;;;;0.50;0.50;;;;;;;4.26;82.50;99271.77;103883;1291;22545;-65
2024/02/24 05:42:27;;;;;;;0.80;0.60;;;;;;;4.25;83.65;99270.91;103927;1301;25425;-66
2024/02/24 05:44:53;;;;;;;0.70;0.70;;;;;;;4.22;82.95;99268.23;104043;1305;22633;-64
2024/02/24 05:47:19;;;;;;;2.10;1.10;;;;;;;4.22;83.15;99264.47;103918;1310;22567;-64
2024/02/24 05:49:44;;;;;;;1.10;0.80;;;;;;;4.22;82.77;99264.48;103845;1288;22659;-65
2024/02/24 05:52:10;;;;;;;1.00;0.70;;;;;;;4.23;83.17;99267.19;103870;1304;24301;-65
2024/02/24 05:54:38;;;;;;;1.40;0.80;;;;;;;4.21;83.25;99271.29;103907;1303;22927;-64
2024/02/24 05:57:04;;;;;;;1.00;0.90;;;;;;;4.20;83.06;99278.30;103590;1304;23066;-65
2024/02/24 05:59:30;;;;;;;1.00;0.90;;;;;;;4.22;83.31;99283.92;103857;1288;22744;-65
2024/02/24 06:01:55;;;;;;;1.40;0.70;;;;;;;4.20;83.30;99286.84;103795;1305;24379;-65
2024/02/24 06:04:21;;;;;;;1.10;1.00;;;;;;;4.19;83.16;99290.27;103794;1310;24288;-65
2024/02/24 06:06:48;;;;;;;1.40;0.80;;;;;;;4.20;83.25;99292.80;103748;1309;22578;-65
2024/02/24 06:09:15;;;;;;;0.90;0.90;;;;;;;4.20;83.32;99302.02;103982;1304;22684;-65
2024/02/24 06:11:41;;;;;;;1.50;0.70;;;;;;;4.18;83.32;99306.64;103746;1291;22603;-65
2024/02/24 06:14:06;;;;;;;0.80;0.80;;;;;;;4.18;83.38;99310.40;103566;1304;22583;-64
2024/02/24 06:16:33;;;;;;;0.80;0.70;;;;;;;4.18;83.99;99320.81;103932;1303;22574;-65
2024/02/24 06:18:59;;;;;;;0.70;0.60;;;;;;;4.12;83.99;99326.52;103611;1306;24114;-65
2024/02/24 06:21:25;;;;;;;0.90;0.80;;;;;;;4.14;85.29;99331.11;103909;1291;24152;-65
2024/02/24 06:23:52;;;;;;;1.30;1.00;;;;;;;4.08;85.45;99337.15;103582;1310;22592;-65
2024/02/24 06:26:17;;;;;;;1.80;1.00;;;;;;;4.07;84.64;99339.02;103938;1310;23815;-65
2024/02/24 06:28:43;;;;;;;2.50;1.10;;;;;;;4.10;84.37;99340.20;103916;1304;23594;-64
2024/02/24 06:31:09;;;;;;;2.10;1.40;;;;;;;4.13;84.83;99350.05;103807;1290;23687;-65
2024/02/24 06:33:34;;;;;;;1.70;1.30;;;;;;;4.12;84.43;99357.23;103785;1304;22559;-65
2024/02/24 06:36:01;;;;;;;2.00;1.50;;;;;;;4.11;84.67;99359.11;103556;1310;25428;-66
2024/02/24 06:38:27;;;;;;;2.60;1.80;;;;;;;4.13;85.10;99359.78;103777;1308;22592;-65
2024/02/24 06:40:53;;;;;;;2.90;1.70;;;;;;;4.10;85.42;99360.64;103895;1291;23225;-65
2024/02/24 06:43:18;;;;;;;1.90;1.60;;;;;;;4.09;85.31;99365.95;103826;1307;22569;-66
2024/02/24 06:45:43;;;;;;;6.80;3.30;;;;;;;4.11;85.74;99365.58;103716;1310;22604;-65
2024/02/24 06:48:09;;;;;;;6.30;1.70;;;;;;;4.11;85.58;99364.41;103771;1298;23200;-65
2024/02/24 06:50:34;;;;;;;2.40;1.90;;;;;;;4.12;85.27;99368.64;103717;1286;22569;-65
2024/02/24 06:53:00;;;;;;;2.80;1.80;;;;;;;4.16;85.65;99366.02;103599;1309;25292;-66
2024/02/24 06:55:26;;;;;;;3.30;2.00;;;;;;;4.18;85.36;99369.23;103930;1300;22733;-65
2024/02/24 06:57:51;;;;;;;2.10;2.00;;;;;;;4.21;85.07;99368.70;103714;1310;25324;-66
2024/02/24 07:00:17;;;;;;;2.70;1.90;;;;;;;4.24;85.00;99369.50;103941;1307;22692;-65
2024/02/24 07:02:43;;;;;;;2.60;2.20;;;;;;;4.27;85.11;99372.56;103582;1294;22576;-65
2024/02/24 07:05:08;;;;;;;2.10;1.80;;;;;;;4.30;85.10;99373.89;103747;1311;23300;-65
2024/02/24 07:07:35;;;;;;;2.60;2.20;;;;;;;4.35;86.62;99381.86;103895;1304;26235;-66
2024/02/24 07:10:04;;;;;;;1.70;1.60;;;;;;;4.34;86.91;99389.04;103859;1310;22560;-66
2024/02/24 07:12:31;;;;;;;2.90;1.80;;;;;;;4.36;87.33;99398.90;103933;1304;22688;-66
2024/02/24 07:14:56;;;;;;;;;;;;;;;4.40;86.94;99399.39;103816;1305;22612;-65
2024/02/24 07:17:21;;;;;;;3.70;1.70;;;;;;;4.46;86.65;99404.60;103926;1307;24378;-66
2024/02/24 07:19:47;;;;;;;2.40;1.70;;;;;;;4.57;86.51;99409.77;103937;1310;25398;-66
2024/02/24 07:22:16;;;;;;;5.10;1.60;;;;;;;4.71;86.63;99415.23;103924;1288;25431;-66
2024/02/24 07:24:41;;;;;;;3.10;2.20;;;;;;;4.79;86.86;99422.29;103669;1310;23755;-65
2024/02/24 07:27:07;;;;;;;2.30;1.70;;;;;;;4.83;87.44;99428.58;103809;1310;25345;-66
2024/02/24 07:29:33;;;;;;;3.60;2.50;;;;;;;4.81;87.19;99432.86;105100;1310;23042;-66
2024/02/24 07:31:58;;;;;;;1.90;1.70;;;;;;;4.84;87.74;99437.09;103980;1291;24297;-65
2024/02/24 07:34:24;;;;;;;2.40;1.90;;;;;;;4.81;87.80;99445.33;103709;1310;25536;-65
2024/02/24 07:36:49;;;;;;;4.00;2.10;;;;;;;4.83;87.83;99447.69;103772;1307;22564;-66
2024/02/24 07:39:15;;;;;;;3.90;2.00;;;;;;;4.87;87.90;99452.60;104081;1301;26056;-66
2024/02/24 07:41:41;;;;;;;2.20;2.00;;;;;;;4.90;88.02;99456.48;104511;1310;22587;-66
2024/02/24 07:44:07;;;;;;;2.60;2.20;;;;;;;4.93;87.67;99460.89;104093;1304;25276;-65
2024/02/24 07:46:33;;;;;;;2.50;1.50;;;;;;;5.01;87.95;99467.46;106520;1310;23109;-65
2024/02/24 07:49:00;;;;;;;2.40;1.20;;;;;;;5.09;87.73;99472.83;104093;1304;23432;-66
2024/02/24 07:51:27;;;;;;;2.90;1.30;;;;;;;5.22;87.95;99472.48;104351;1288;76295;-65
2024/02/24 07:53:53;;;;;;;3.10;0.70;;;;;;;5.33;88.36;99471.13;104429;1291;24298;-65
2024/02/24 07:56:27;;;;;;;1.10;1.00;;;;;;;5.38;88.71;99473.13;104137;1307;24318;-65
2024/02/24 07:58:53;;;;;;;1.40;1.20;;;;;;;5.44;88.19;99477.30;105818;1303;22569;-65
2024/02/24 08:01:19;;;;;;;1.40;1.30;;;;;;;5.59;88.28;99476.25;104217;1298;22586;-65
2024/02/24 08:03:45;;;;;;;0.70;0.70;;;;;;;5.71;88.08;99480.34;104429;1291;22578;-64
2024/02/24 08:06:10;;;;;;;1.50;1.20;;;;;;;5.80;87.86;99478.82;104223;1310;22668;-64
2024/02/24 08:08:37;;;;;;;0.80;0.80;;;;;;;5.91;87.77;99482.95;104234;1310;22593;-65
2024/02/24 08:11:08;;;;;;;1.40;0.60;;;;;;;6.07;88.15;99485.45;105978;1301;22573;-67
2024/02/24 08:13:41;;;;;;;1.00;0.70;;;;;;;6.23;88.41;99489.46;103857;1308;25098;-67
2024/02/24 08:16:21;;;;;;;0.40;0.40;;;;;;;6.37;88.79;99500.17;104140;1301;24031;-65
2024/02/24 08:18:56;;;;;;;0.90;0.60;;;;;;;6.40;88.73;99500.29;103751;1303;22570;-68
2024/02/24 08:21:26;;;;;;;0.60;0.50;;;;;;;6.46;88.72;99499.35;104507;1304;23300;-66
2024/02/24 08:23:52;;;;;;;1.40;0.80;;;;;;;6.63;88.95;99506.06;104204;1292;22568;-65
2024/02/24 08:26:17;;;;;;;1.60;0.70;;;;;;;6.73;88.87;99511.37;104863;1304;24449;-66
2024/02/24 08:28:43;;;;;;;1.30;0.80;;;;;;;6.62;88.32;99514.45;104141;1309;22581;-65
2024/02/24 08:31:08;;;;;;;0.90;0.70;;;;;;;6.56;88.53;99524.67;104046;1295;22572;-64
2024/02/24 08:33:34;;;;;;;2.60;0.70;;;;;;;6.56;88.69;99528.27;103856;1291;25255;-68
2024/02/24 08:35:59;;;;;;;2.20;0.90;;;;;;;6.60;88.77;99530.59;103930;1307;22642;-64
2024/02/24 08:38:27;;;;;;;2.50;0.80;;;;;;;6.60;88.77;99531.11;103987;1304;22575;-66
2024/02/24 08:40:54;;;;;;;1.70;1.00;;;;;;;6.63;88.79;99526.77;103853;1303;22823;-68
2024/02/24 08:43:20;;;;;;;1.20;1.00;;;;;;;6.72;88.78;99530.56;106408;1294;22631;-68
2024/02/24 08:45:45;;;;;;;1.30;1.10;;;;;;;6.64;88.60;99540.80;103697;1299;23081;-66
2024/02/24 08:48:12;;;;;;;1.20;0.90;;;;;;;6.50;88.48;99540.52;103950;1297;22617;-66
2024/02/24 08:50:40;;;;;;;1.40;1.30;;;;;;;6.47;88.64;99537.66;104786;1289;22561;-66
2024/02/24 08:53:05;;;;;;;2.20;2.00;;;;;;;6.62;88.86;99536.73;107436;1289;22256;-62
2024/02/24 08:55:31;;;;;;;1.30;1.20;;;;;;;6.73;88.77;99534.65;107336;1309;22239;-61
2024/02/24 08:57:56;;;;;;;1.70;1.20;;;;;;;6.78;88.78;99540.35;107402;1309;22244;-65
2024/02/24 09:00:22;;;;;;;3.20;1.60;;;;;;;6.80;88.69;99546.13;107307;1304;22267;-65
2024/02/24 09:02:48;;;;;;;1.20;1.10;;;;;;;6.83;88.68;99550.89;107438;1289;22691;-63
2024/02/24 09:05:14;;;;;;;2.40;1.10;;;;;;;7.02;88.99;99555.68;107466;1302;23717;-65
2024/02/24 09:07:40;;;;;;;1.60;0.90;;;;;;;7.40;89.12;99557.83;107400;1310;22906;-64
2024/02/24 09:10:09;;;;;;;2.80;1.20;;;;;;;7.75;88.92;99562.59;107453;1305;22401;-65
2024/02/24 09:12:35;;;;;;;1.00;0.60;;;;;;;7.81;88.00;99565.03;106163;1304;25426;-66
2024/02/24 09:15:00;;;;;;;0.90;0.90;;;;;;;8.01;88.36;99567.31;103990;1291;22806;-65
2024/02/24 09:17:26;;;;;;;1.20;1.10;;;;;;;8.68;88.69;99569.15;103804;1302;25271;-64
2024/02/24 09:19:51;;;;;;;2.40;1.00;;;;;;;9.58;84.54;99575.12;103988;1298;23681;-63
2024/02/24 09:22:17;;;;;;;1.50;1.20;;;;;;;10.24;85.39;99578.32;104042;1305;24285;-63
2024/02/24 09:24:43;;;;;;;1.10;1.00;;;;;;;10.82;85.79;99582.42;104092;1291;25490;-63
2024/02/24 09:27:08;;;;;;;3.50;1.60;;;;;;;10.87;84.74;99591.75;103900;1298;24557;-62
2024/02/24 09:29:34;;;;;;;6.60;4.80;;;;;;;10.91;83.72;99596.95;103981;1291;22878;-62
2024/02/24 09:32:00;;;;;;;7.00;6.30;;;;;;;10.82;81.59;99603.98;104021;1304;23494;-62
2024/02/24 09:34:25;;;;;;;1.60;1.20;;;;;;;10.47;81.70;99613.06;103950;1293;25450;-62
2024/02/24 09:36:55;;;;;;;1.30;1.20;;;;;;;10.37;83.26;99615.81;104111;1307;23479;-62
2024/02/24 09:39:32;;;;;;;1.40;1.30;;;;;;;11.02;84.11;99620.91;104300;1305;23087;-62
2024/02/24 09:42:00;;;;;;;2.30;1.70;;;;;;;11.53;81.02;99627.75;104154;1304;22586;-62
2024/02/24 09:44:29;;;;;;;1.80;1.30;;;;;;;11.92;81.61;99629.61;104138;1301;22989;-59
2024/02/24 09:46:57;;;;;;;7.20;3.70;;;;;;;12.44;80.77;99630.69;104488;1305;23097;-57
2024/02/24 09:49:27;;;;;;;79.20;6.90;;;;;;;13.71;83.51;99638.59;104039;1304;23808;-58
2024/02/24 10:18:07;;;;;;;3.10;2.30;;;;;;;13.62;69.68;99676.95;103361;1298;548020;-57
2024/02/24 10:20:32;;;;;;;2.20;2.00;;;;;;;12.71;67.51;99680.27;103506;1301;25846;-56
2024/02/24 10:22:58;;;;;;;15.30;6.70;;;;;;;13.39;69.24;99680.74;103380;1312;22582;-57
2024/02/24 10:25:23;;;;;;;9.10;6.20;;;;;;;13.79;66.70;99680.36;103609;1310;23630;-56
2024/02/24 10:27:50;;;;;;;24.90;6.90;;;;;;;14.29;66.87;99680.02;103521;1300;22580;-57
2024/02/24 10:30:17;;;;;;;39.90;17.00;;;;;;;14.61;66.37;99676.77;103372;1317;348476;-55
2024/02/24 10:33:03;;;;;;;47.70;9.30;;;;;;;15.10;65.84;99681.12;103798;1308;22817;-56
2024/02/24 10:35:29;;;;;;;46.50;5.60;;;;;;;15.74;63.92;99680.14;105509;1310;22579;-58
2024/02/24 10:37:55;;;;;;;46.90;8.70;;;;;;;15.09;64.05;99684.09;105761;1294;24250;-56
2024/02/24 10:40:22;;;;;;;5.80;4.40;;;;;;;14.50;63.56;99693.97;103616;1314;23820;-57
2024/02/24 10:42:48;;;;;;;38.60;8.80;;;;;;;14.30;61.21;99696.60;103949;1314;22599;-56
2024/02/24 10:45:14;;;;;;;103.40;11.00;;;;;;;14.34;61.10;99695.54;103709;1307;22558;-58
2024/02/24 10:47:39;;;;;;;17.00;6.50;;;;;;;14.46;60.28;99702.84;103571;1294;24351;-58
2024/02/24 10:50:11;;;;;;;67.20;16.20;;;;;;;14.72;60.82;99705.23;104120;1312;23410;-56
2024/02/24 10:52:41;;;;;;;59.10;16.60;;;;;;;14.58;58.51;99710.75;104889;1298;22820;-56
2024/02/24 10:55:10;;;;;;;32.20;13.10;;;;;;;14.90;60.59;99707.45;106368;1313;23982;-58
2024/02/24 10:57:37;;;;;;;143.10;20.70;;;;;;;15.44;58.60;99711.91;107233;1290;22363;-57
2024/02/24 11:00:25;;;;;;;267.00;23.50;;;;;;;15.54;59.14;99720.42;107203;1307;22578;-58
2024/02/24 11:02:51;;;;;;;102.90;15.60;;;;;;;15.97;58.39;99719.74;107265;1312;22304;-57
2024/02/24 11:05:18;;;;;;;49.90;7.90;;;;;;;15.89;56.52;99722.92;107263;1312;22471;-56
2024/02/24 11:07:43;;;;;;;101.60;12.40;;;;;;;15.18;56.89;99727.95;107225;1289;22335;-58
2024/02/24 11:10:18;;;;;;;7.40;4.80;;;;;;;14.88;55.85;99730.80;107358;1310;22429;-57
2024/02/24 11:12:47;;;;;;;13.00;8.10;;;;;;;14.20;56.45;99734.30;107356;1311;22428;-58
2024/02/24 11:15:23;;;;;;;4.00;3.50;;;;;;;13.94;56.46;99742.09;106801;1311;167207;-58
2024/02/24 11:17:55;;;;;;;3.60;3.30;;;;;;;13.53;55.57;99742.48;106896;1292;22718;-57
2024/02/24 11:20:59;;;;;;;10.10;9.10;;;;;;;13.07;57.22;99746.45;107059;1301;22245;-57
2024/02/24 11:23:31;;;;;;;3.70;2.40;;;;;;;13.33;57.88;99749.20;106389;1307;22255;-58
2024/02/24 11:26:09;;;;;;;4.00;3.30;;;;;;;14.08;56.45;99746.80;106348;1317;22305;-58
2024/02/24 11:28:41;;;;;;;14.50;4.10;;;;;;;14.41;55.05;99748.81;106340;1304;22346;-57
2024/02/24 11:31:07;;;;;;;13.40;3.20;;;;;;;14.72;54.54;99751.55;102561;1316;23474;-58
2024/02/24 11:33:38;;;;;;;5.50;2.10;;;;;;;14.33;54.58;99751.44;103037;1310;22789;-57
2024/02/24 11:36:07;;;;;;;4.40;3.10;;;;;;;13.56;55.23;99751.53;103158;1323;23955;-57
2024/02/24 11:38:34;;;;;;;9.20;5.90;;;;;;;13.45;55.85;99753.58;103049;1305;22595;-57
2024/02/24 11:41:25;;;;;;;7.80;4.60;;;;;;;14.18;55.79;99757.13;102927;1324;22576;-58
2024/02/24 11:43:52;;;;;;;7.10;3.30;;;;;;;14.85;54.72;99753.70;106274;1317;22804;-60
2024/02/24 11:46:17;;;;;;;4.80;2.40;;;;;;;14.37;54.39;99755.55;106193;1306;22346;-58
2024/02/24 11:48:43;;;;;;;4.10;2.50;;;;;;;13.76;54.27;99760.03;106256;1306;22294;-58
2024/02/24 11:51:17;;;;;;;6.10;3.70;;;;;;;13.57;54.25;99765.67;106299;1309;22427;-59
2024/02/24 11:53:43;;;;;;;2.70;2.50;;;;;;;14.04;53.36;99769.88;106422;1309;22486;-57
2024/02/24 11:56:08;;;;;;;23.50;11.10;;;;;;;14.32;53.70;99768.64;103276;1307;22606;-57